Stations météo

réclame
Mon MeteoGroup
Bourg-St-Maurice, France (7497): Température de l'air & dewpoint: 12.01.2020 11:00:00 - 18.01.2020 11:00:00 (CET)Bourg-St-Maurice, France (7497): Température de l'air -20cm & Température de l'air -100cm: 12.01.2020 11:00:00 - 18.01.2020 11:00:00 (CET)Bourg-St-Maurice, France (7497): Vitesse du vent & gusts: 12.01.2020 11:00:00 - 18.01.2020 11:00:00 (CET)Bourg-St-Maurice, France (7497): Direction du vent: 12.01.2020 11:00:00 - 18.01.2020 11:00:00 (CET)Bourg-St-Maurice, France (7497): Ensoleillement: 12.01.2020 11:00:00 - 18.01.2020 11:00:00 (CET)Bourg-St-Maurice, France (7497): Quantités de précipitations: 12.01.2020 11:00:00 - 18.01.2020 11:00:00 (CET)
Date & Time tt [°C] td [°C] tt -20cm [°C] tt -100cm [°C] ff [km/h] ff [knt] fx [km/h] fx [knt] dd sd [min] rr [mm]
18.01.2020 11:00:00 3,4 0,6 0,8 4,8 4 2 8 4 S 33 0,0
18.01.2020 10:00:00 0,9 0,2 0,8 4,8 0 0 5 3 N 5 0,0
18.01.2020 09:00:00 0,3 -0,3 0,8 4,8 0 0 3 2 N 0 0,0
18.01.2020 08:00:00 0,1 -0,6 0,8 4,8 0 0 8 5 N 0 0,0
18.01.2020 07:00:00 0,4 0,0 0,8 4,8 3 2 10 5 S 0 0,0
18.01.2020 06:00:00 0,6 0,2 0,8 4,8 5 3 13 7 S 0 0,0
18.01.2020 05:00:00 0,8 0,4 0,8 4,8 0 0 9 5 N 0 0,0
18.01.2020 04:00:00 0,8 0,2 0,8 4,8 0 0 4 2 N 0 0,0
18.01.2020 03:00:00 0,9 0,3 0,8 4,8 0 0 14 8 N 0 0,2
18.01.2020 02:00:00 0,9 0,5 0,9 4,8 5 3 11 6 WSW 0 0,0
18.01.2020 01:00:00 0,6 0,3 0,8 4,8 0 0 9 5 N 0 0,4
18.01.2020 00:00:00 0,5 0,2 0,9 4,8 0 0 14 8 N 0 1,0
17.01.2020 23:00:00 0,2 -0,1 0,8 4,8 2 1 8 4 S 0 1,3
17.01.2020 22:00:00 0,2 -0,2 0,9 4,8 3 2 5 3 S 0 0,8
17.01.2020 21:00:00 0,4 -0,2 0,8 4,8 0 0 3 1 N 0 0,4
17.01.2020 20:00:00 0,6 -0,1 0,9 4,9 0 0 4 2 N 0 0,4
17.01.2020 19:00:00 1,0 0,0 0,9 4,9 0 0 3 1 N 0 1,0
17.01.2020 18:00:00 1,6 0,3 0,8 4,8 0 0 6 3 N 0 1,8
17.01.2020 17:00:00 3,1 0,8 0,8 4,8 4 2 13 7 NNE 0 1,0
17.01.2020 16:00:00 4,3 -1,5 0,8 4,8 6 4 13 7 SSW 0 0,2
17.01.2020 15:00:00 6,3 -4,5 0,8 4,8 0 0 12 6 N 0 0,0
17.01.2020 14:00:00 6,6 -3,6 0,9 4,9 8 4 14 7 S 7 0,0
17.01.2020 13:00:00 7,9 -5,2 0,9 4,8 3 1 8 4 SSE 49 0,0
17.01.2020 12:00:00 3,4 -4,6 0,9 4,8 6 3 11 6 N 30 0,0
17.01.2020 11:00:00 0,6 -3,5 0,9 4,9 4 2 8 4 SSW 18 0,0
17.01.2020 10:00:00 -0,5 -4,2 0,9 4,9 2 1 8 4 SSW 9 0,0
17.01.2020 09:00:00 -2,3 -5,4 0,9 4,9 6 3 9 5 N 0 0,0
17.01.2020 08:00:00 -2,3 -5,6 0,9 4,9 5 3 9 5 N 0 0,0
17.01.2020 07:00:00 -2,0 -5,7 0,9 4,8 5 3 14 8 N 0 0,0
17.01.2020 06:00:00 -2,7 -5,3 0,9 4,8 6 3 9 5 NNW 0 0,0
17.01.2020 05:00:00 -2,6 -5,3 0,9 4,9 0 0 6 4 N 0 0,0
17.01.2020 04:00:00 -2,2 -5,5 0,9 4,8 5 3 10 5 N 0 0,0
17.01.2020 03:00:00 -1,2 -4,9 0,9 4,9 7 4 10 6 NNW 0 0,0
17.01.2020 02:00:00 -1,4 -4,7 0,9 4,9 5 3 11 6 SSW 0 0,0
17.01.2020 01:00:00 -1,7 -4,7 0,9 4,9 4 2 10 6 NNW 0 0,0
17.01.2020 00:00:00 -1,4 -4,4 1,0 4,9 3 2 8 5 W 0 0,0
16.01.2020 23:00:00 -1,0 -4,5 0,9 4,9 2 1 7 4 WNW 0 0,0
16.01.2020 22:00:00 -0,1 -4,5 0,9 4,9 3 1 9 5 NNW 0 0,0
16.01.2020 21:00:00 0,3 -4,2 0,9 4,9 3 1 8 4 NW 0 0,0
16.01.2020 20:00:00 0,7 -3,8 0,9 4,9 5 3 8 5 NNW 0 0,0
16.01.2020 19:00:00 1,5 -3,8 0,9 4,9 2 1 7 4 N 0 0,0
16.01.2020 18:00:00 2,6 -3,5 0,9 4,9 4 2 8 5 NNW 0 0,0
16.01.2020 17:00:00 4,1 -3,7 0,9 4,9 5 3 10 5 N 12 0,0
16.01.2020 16:00:00 6,6 -3,9 0,9 4,9 6 4 15 8 N 60 0,0
16.01.2020 15:00:00 9,4 -1,1 0,8 4,9 0 0 11 6 N 60 0,0
16.01.2020 14:00:00 10,3 -4,1 0,9 4,9 8 4 14 7 S 60 0,0
16.01.2020 13:00:00 7,9 -3,6 0,9 4,9 3 2 6 3 ENE 60 0,0
16.01.2020 12:00:00 6,8 -3,2 0,9 4,9 3 1 6 3 NE 60 0,0
16.01.2020 11:00:00 2,2 -3,9 0,9 4,9 3 1 6 3 N 52 0,0
16.01.2020 10:00:00 -1,4 -4,6 0,9 4,9 3 2 7 4 NNW 0 0,0
16.01.2020 09:00:00 -1,8 -5,0 0,9 4,9 3 2 13 7 NNE 0 0,0
16.01.2020 08:00:00 -2,3 -4,6 0,9 4,9 10 6 16 8 NNW 0 0,0
16.01.2020 07:00:00 -2,2 -5,0 0,9 4,9 4 2 11 6 SSW 0 0,0
16.01.2020 06:00:00 -2,2 -4,7 0,9 4,9 8 4 10 5 N 0 0,0
16.01.2020 05:00:00 -1,6 -4,8 0,9 4,9 4 2 10 5 NNW 0 0,0
16.01.2020 04:00:00 -1,8 -4,5 0,9 4,9 7 4 9 5 N 0 0,0
16.01.2020 03:00:00 -1,0 -4,2 0,9 4,9 5 3 9 5 N 0 0,0
16.01.2020 02:00:00 -1,6 -4,4 1,0 4,9 3 2 5 3 N 0 0,0
16.01.2020 01:00:00 -0,9 -3,9 1,0 5,0 0 0 9 5 N 0 0,0
16.01.2020 00:00:00 -1,0 -3,7 0,9 4,9 8 4 10 5 N 0 0,0
15.01.2020 23:00:00 -0,5 -3,4 1,0 4,9 2 1 9 5 SW 0 0,0
15.01.2020 22:00:00 0,0 -3,6 1,0 5,0 5 3 8 4 NNW 0 0,0
15.01.2020 21:00:00 0,4 -3,3 1,0 5,0 4 2 7 4 N 0 0,0
15.01.2020 20:00:00 0,7 -3,4 0,9 4,9 3 2 7 4 N 0 0,0
15.01.2020 19:00:00 1,8 -3,3 0,9 4,9 4 2 10 5 NNW 0 0,0
15.01.2020 18:00:00 2,8 -2,7 0,9 5,0 3 2 11 6 NNW 0 0,0
15.01.2020 17:00:00 3,7 -2,7 0,9 5,0 8 4 10 6 N 0 0,0
15.01.2020 16:00:00 5,7 -3,1 0,9 5,0 6 3 10 6 NNW 28 0,0
15.01.2020 15:00:00 7,2 -1,5 0,9 5,0 0 0 6 3 N 36 0,0
15.01.2020 14:00:00 7,1 -4,7 0,9 4,9 3 1 6 3 NE 42 0,0
15.01.2020 13:00:00 7,1 -5,0 0,9 5,0 0 0 7 4 N 43 0,0
15.01.2020 12:00:00 7,2 -2,5 0,9 5,0 3 2 8 4 ESE 53 0,0
15.01.2020 11:00:00 1,9 -3,6 0,9 5,0 3 2 7 4 N 52 0,0
15.01.2020 10:00:00 -1,3 -4,6 1,0 5,0 2 1 6 3 WNW 0 0,0
15.01.2020 09:00:00 -1,9 -5,1 1,0 5,0 2 1 8 5 NE 0 0,0
15.01.2020 08:00:00 -2,1 -5,3 0,9 5,0 4 2 10 5 NNE 0 0,0
15.01.2020 07:00:00 -1,6 -4,8 0,9 5,0 4 2 8 4 NW 0 0,0
15.01.2020 06:00:00 -1,3 -5,0 1,0 5,0 3 1 8 4 WSW 0 0,0
15.01.2020 05:00:00 -1,2 -5,1 1,0 5,0 3 2 9 5 N 0 0,0
15.01.2020 04:00:00 -1,7 -5,0 1,0 5,0 6 3 9 5 N 0 0,0
15.01.2020 03:00:00 -1,2 -5,1 1,0 5,0 0 0 8 4 N 0 0,0
15.01.2020 02:00:00 -0,9 -5,1 1,0 5,0 2 1 7 4 NE 0 0,0
15.01.2020 01:00:00 -0,8 -5,2 1,0 5,0 4 2 9 5 N 0 0,0
15.01.2020 00:00:00 -0,6 -4,8 1,0 5,0 4 2 7 4 N 0 0,0
14.01.2020 23:00:00 -0,1 -4,2 1,0 5,0 2 1 4 2 WSW 0 0,0
14.01.2020 22:00:00 0,4 -5,2 1,0 5,0 3 2 10 5 N 0 0,0
14.01.2020 21:00:00 0,3 -4,9 1,0 5,0 4 2 6 4 N 0 0,0
14.01.2020 20:00:00 0,8 -4,8 0,9 5,0 6 3 8 5 NNW 0 0,0
14.01.2020 19:00:00 1,7 -4,8 0,9 5,0 4 2 9 5 NNE 0 0,0
14.01.2020 18:00:00 2,1 -4,4 0,9 5,0 0 0 10 6 N 0 0,0
14.01.2020 17:00:00 3,8 -5,2 0,9 5,0 4 2 11 6 N 10 0,0
14.01.2020 16:00:00 5,0 -3,6 0,9 5,0 5 3 29 16 NW 60 0,0
14.01.2020 15:00:00 7,6 -3,0 0,9 5,0 0 0 6 3 N 60 0,0
14.01.2020 14:00:00 8,0 -3,8 0,9 5,0 0 0 7 4 N 60 0,0
14.01.2020 13:00:00 6,4 -6,2 0,9 5,0 3 2 6 3 NE 60 0,0
14.01.2020 12:00:00 4,7 -5,4 0,9 5,0 0 0 8 5 N 60 0,0
14.01.2020 11:00:00 3,0 -5,2 0,9 5,0 0 0 7 4 N 51 0,0
14.01.2020 10:00:00 -1,9 -6,5 1,0 5,0 3 2 5 3 N 0 0,0
14.01.2020 09:00:00 -2,1 -6,3 1,0 5,0 0 0 7 4 N 0 0,0
14.01.2020 08:00:00 -2,5 -6,9 1,0 5,1 4 2 7 4 NNW 0 0,0
14.01.2020 07:00:00 -2,4 -7,1 1,0 5,1 5 3 8 4 N 0 0,0
14.01.2020 06:00:00 -1,8 -6,7 1,0 5,1 3 2 8 4 NW 0 0,0
14.01.2020 05:00:00 -2,3 -6,5 1,0 5,0 5 3 8 4 N 0 0,0
14.01.2020 04:00:00 -2,0 -6,9 1,0 5,1 2 1 9 5 NNE 0 0,0
14.01.2020 03:00:00 -2,5 -6,7 1,0 5,1 6 3 8 4 NNE 0 0,0
14.01.2020 02:00:00 -2,2 -6,4 1,0 5,1 3 2 7 4 N 0 0,0
14.01.2020 01:00:00 -2,3 -6,1 1,0 5,1 5 3 8 4 N 0 0,0
14.01.2020 00:00:00 -1,6 -6,2 1,0 5,1 2 1 9 5 N 0 0,0
13.01.2020 23:00:00 -1,5 -5,5 1,0 5,1 5 3 6 4 N 0 0,0
13.01.2020 22:00:00 -1,1 -5,5 1,0 5,1 2 1 8 4 N 0 0,0
13.01.2020 21:00:00 -0,5 -4,9 1,0 5,1 2 1 8 4 NNW 0 0,0
13.01.2020 20:00:00 -0,4 -5,0 1,0 5,1 4 2 7 4 N 0 0,0
13.01.2020 19:00:00 1,2 -4,9 1,0 5,1 4 2 10 6 N 0 0,0
13.01.2020 18:00:00 2,2 -4,6 1,0 5,1 5 3 12 6 N 0 0,0
13.01.2020 17:00:00 3,5 -4,9 1,0 5,1 5 3 8 4 NNW 9 0,0
13.01.2020 16:00:00 5,3 -2,3 1,0 5,1 2 1 5 3 W 15 0,0
13.01.2020 15:00:00 8,0 -5,5 1,0 5,1 3 1 5 3 E 60 0,0
13.01.2020 14:00:00 6,7 -7,3 1,0 5,1 3 2 6 3 NNE 47 0,0
13.01.2020 13:00:00 6,5 -6,8 1,0 5,1 0 0 6 3 N 60 0,0
13.01.2020 12:00:00 5,3 -4,3 1,0 5,1 3 1 6 3 E 60 0,0
13.01.2020 11:00:00 2,3 -4,2 1,1 5,1 0 0 7 4 N 52 0,0
13.01.2020 10:00:00 -1,3 -5,3 1,0 5,1 4 2 7 4 SSW 20 0,0
13.01.2020 09:00:00 -1,9 -6,6 1,1 5,1 3 1 6 3 N 23 0,0
13.01.2020 08:00:00 -2,8 -7,0 1,1 5,1 3 2 6 3 N 0 0,0
13.01.2020 07:00:00 -3,2 -7,0 1,1 5,1 5 3 7 4 N 0 0,0
13.01.2020 06:00:00 -3,0 -7,2 1,1 5,1 3 1 6 3 NW 0 0,0
13.01.2020 05:00:00 -2,8 -7,3 1,1 5,1 3 1 8 4 NNE 0 0,0
13.01.2020 04:00:00 -3,1 -6,7 1,2 5,1 6 3 7 4 N 0 0,0
13.01.2020 03:00:00 -2,6 -6,8 1,2 5,1 2 1 5 3 NNW 0 0,0
13.01.2020 02:00:00 -2,5 -6,5 1,2 5,1 4 2 6 4 N 0 0,0
13.01.2020 01:00:00 -1,9 -6,1 1,2 5,1 0 0 6 3 N 0 0,0
13.01.2020 00:00:00 -1,5 -6,3 1,2 5,1 6 3 8 4 N 0 0,0
12.01.2020 23:00:00 -1,0 -6,0 1,2 5,2 3 1 8 4 NNE 0 0,0
12.01.2020 22:00:00 -0,5 -5,7 1,2 5,1 4 2 10 5 N 0 0,0
12.01.2020 21:00:00 -0,5 -4,6 1,2 5,2 2 1 5 3 WNW 0 0,0
12.01.2020 20:00:00 0,1 -5,3 1,2 5,1 0 0 6 4 N 0 0,0
12.01.2020 19:00:00 0,8 -5,0 1,2 5,1 5 3 6 3 N 0 0,0
12.01.2020 18:00:00 1,8 -4,9 1,2 5,1 2 1 10 5 WNW 0 0,0
12.01.2020 17:00:00 3,4 -4,8 1,2 5,2 4 2 8 4 N 5 0,0
12.01.2020 16:00:00 5,7 -5,0 1,2 5,1 5 3 10 6 NW 57 0,0
12.01.2020 15:00:00 6,6 -6,7 1,2 5,1 3 2 5 3 N 60 0,0
12.01.2020 14:00:00 6,9 -3,9 1,2 5,1 0 0 6 3 N 60 0,0
12.01.2020 13:00:00 8,6 -5,3 1,2 5,2 3 2 5 3 S 60 0,0
12.01.2020 12:00:00 6,3 -6,0 1,2 5,1 0 0 7 4 N 60 0,0
12.01.2020 11:00:00 0,5 -6,6 1,3 5,2 5 3 7 4 N 50 0,0

tt = Température de l'air
td = dewpoint
tt -20cm = Température de l'air -20cm
tt -100cm = Température de l'air -100cm
ff = Vitesse du vent
fx = gusts
dd = Direction du vent
sd = Ensoleillement
rr = Quantités de précipitations

stations d'obs. à proximité